EA1HJA
43.21.47N 005.52.09W
IN73BI aprs.fi
zuletzt gehoert:
2021-12-06T17:33:41Z
zuerst gehoert:
2020-02-10T15:01:43Z

APRS Oviedo [IN73BI], 0 Stunde(n), EA1HJA [18:46:19, 0s].
33D00 43.21.63N 005.51.13WIN73BI 1.402km 63°ENE17:01:43Z33-D-00 Protección Civil REMER / Delegación del Gobierno en Asturias
EA1YR 43.22.09N 005.51.86WIN73BI 1.536km N17:34:07ZMMDVM DVS 434.3500/434.3500 CC1
EA1L 43.20.37N 005.51.13WIN73BI 2.084km 143°SE17:42:58Zea1l@ure.es V=13.6V,T=??.?C
Wind 000°/000kn, Böen bis 000kn, Temp 12.22c, Regen 0.0mm, letzte 24h 0.0mm, seit 0h 0.0mm, Baro 1021.2h, Hum: 0%(2EA1L-13)
ED1ZAU 43.23.04N 005.52.75WIN73BJ 3.393km 344°NNW17:34:38ZRD625 438.5000/430.9000 CC1
EA1HWX 43.19.29N 005.50.96WIN73BH 3.970km 158°SSE17:32:48ZDMO - UHF 439.7250/431.0000 CC11
LEHU 43.22.63N 005.49.57WIN73CJ 4.165km 53°NE17:31:20ZHelipuerto del HUCA: LEAS 061700Z 28016KT 0300 R29/1900N R11/0700D BCFG VV002 13/12 Q1023 TEMPO 1500 BKN005=
EA1ABW 43.24.77N 005.47.77WIN73CJ 8.668km 42°NE17:32:37ZMMDVM MMDVM HS Hat 439.8250/439.8250 CC1
LEMR 43.25.83N 005.49.60WIN73CK 9.047km 21°NNE17:31:23ZAerodromo de la Morgal: LEAS 061700Z 28016KT 0300 R29/1900N R11/0700D BCFG VV002 13/12 Q1023 TEMPO 1500 BKN005=
LEGM 43.26.15N 005.49.84WIN73CK 9.518km 18°NNE17:31:19ZHelipuerto de La Morgal: LEAS 061700Z 28016KT 0300 R29/1900N R11/0700D BCFG VV002 13/12 Q1023 TEMPO 1500 BKN005=
EA1IPU 43.26.21N 005.46.62WIN73CK 11.715km 39°NE17:31:21ZMMDVM MMDVM HS Hat 439.8000/439.8000 CC1
EA1IMW 43.14.36N 005.46.93WIN73CF 14.569km 152°SSE17:34:00ZGRUPO RADIO GALENA (GRG) 430.4500/430.4500 CC1
ED1ZAY 43.29.47N 005.56.54WIN73AL 16.351km 338°NNW17:34:40ZRD625 438.3000/430.7000 CC1
EA1JBL 43.12.28N 005.47.42WIN73CE 17.791km 159°SSE17:34:00ZMMDVM DVMega 435.3000/435.3000 CC1
EB1DGC 43.12.60N 005.45.59WIN73CF 18.292km 152°SSE17:33:07ZMMDVM MMDVM HS Hat 433.4500/433.4500 CC1
EA1HWA 43.12.00N 005.47.40WIN73CE 18.309km 160°SSE17:33:55ZMMDVM MMDVM HS Hat 433.4500/433.4500 CC1
ED1ZAS 43.27.52N 005.40.17WIN73DL 19.737km 54°NE17:34:34ZRD985 438.2250/430.6250 CC1
ED1ZAE 43.27.99N 005.40.54WIN73DL 19.857km 51°NE17:41:39Z2m Voice 145.5875 -0.600 Mhz(3ED1ZAE-C)
WIDE3-3 ESAS3-3 IN73DL WWW.EA1URG.ORG(2ED1ZAE-3)
EA1FLQ 43.22.00N 005.36.35WIN73EI 21.185km 86°E17:33:26ZMMDVM DVMega 439.9750/439.9750 CC1
EA1AHA 43.32.72N 005.54.38WIN73BN 21.442km 352°N17:32:50ZWind 000°/011kn, Böen bis 015kn, Temp 13.89c, Regen 0.0mm, letzte 24h 7.9mm, seit 0h 7.9mm, Baro 1024.7h, Hum: 83%(3EA1AHA-13)
EA1RCG 43.09.45N 005.49.78WIN73CD 22.118km 172°S17:32:07ZGRUPO RADIO GALENA (GRG) 430.4500/430.4500 CC1
EB1TK 43.32.22N 005.42.32WIN73DM 24.146km 33°NNE17:45:24ZWind 273°/005kn, Böen bis 010kn, Temp 12.78c, Regen 0.0mm, letzte 24h 8.9mm, seit 0h 8.9mm, Baro 1025.7h, Hum: 94%(3EB1TK-13)
EA1DZR 43.31.47N 005.40.00WIN73DM 24.879km 41°NE17:34:20ZMMDVM MMDVM HS Dual Hat 432.1000/432.1000 CC2
EA1DHE 43.33.98N 005.58.57WIN73AN 25.125km 340°NNW17:34:22ZMMDVM DVS 434.3500/434.3500 CC1
EC1AIJ 43.19.77N 005.33.49WIN73FH 25.173km 96°E17:32:14ZMMDVM MMDVM HS Hat 432.9800/432.9800 CC1
LEEL 43.32.98N 005.41.71WIN73DN 25.750km 33°NNE17:31:23ZHelipuerto de El Musel: LEAS 061700Z 28016KT 0300 R29/1900N R11/0700D BCFG VV002 13/12 Q1023 TEMPO 1500 BKN005=
EB1GEM 43.30.00N 005.36.07WIN73EM 26.911km 53°NE17:28:49ZWX3in1Plus2.0 U=13.3V,T=??.?C/??.?F(3EB1GEM-3)
ED1ZAD 43.07.90N 005.38.52WIN73ED 30.776km 144°SE17:30:12ZED1ZAD-3 APRS Digi/Igate(3ED1ZAD-3)
EA1HJA 43.28.10N 005.30.45WIN73FL 31.706km 66°ENE17:39:25Z IN73FL WX3IN1+ 2.0 - V=14.0V,TX TEMP=43.2C
EA1HJA@URE.ES(2EA1HJA-2)
EA1FHR 43.28.72N 005.26.41WIN73GL 37.153km 68°ENE17:33:20ZMMDVM MMDVM HS Hat 439.1500/439.1500 CC1
EA1JAY 43.29.33N 005.26.78WIN73GL 37.147km 66°ENE17:31:26Z434.525MHz Nodo TETRA DMO(3EA1JAY-4)
EA1JAY(2EA1JAY-2)
EA1HWD 43.28.96N 005.26.30WIN73GL 37.468km 68°ENE17:33:10Z144.575FM Local frecuency VHF. 434.2500/434.2500 CC1
EC1KV 43.34.01N 006.16.01WIN63UN 39.929km 306°NW17:17:34Z VOLT.=14.5 V - TEMP.=??.? C(3EC1KV-1)
LETN 43.20.05N 006.22.69WIN63TI 41.360km 267°W17:31:20ZAerodromo de La Curiscada (Tineo): LEAS 061700Z 28016KT 0300 R29/1900N R11/0700D BCFG VV002 13/12 Q1023 TEMPO 1500 BKN005=

aprs.pl 5.0.011w DL3EL © 2006-2021 [1191119]